ADDS METAR Data INFO
IDs: Format: Raw Decoded Include TAF

Data at: 1939 UTC 16 Aug 2017

KDUB 161915Z AUTO 34004KT 10SM SCT110 21/M01 A3020 RMK AO2
KDUB 161855Z AUTO 33010G14KT 295V355 10SM CLR 21/M01 A3021 RMK AO2
KDUB 161835Z AUTO 00000KT 10SM SCT110 20/00 A3021 RMK AO2
KDUB 161815Z AUTO 31008KT 10SM CLR 18/00 A3021 RMK AO2
KDUB 161755Z AUTO 32013G17KT 10SM SCT120 20/00 A3021 RMK AO2 TSNO
KDUB 161735Z AUTO 01005KT 10SM CLR 20/00 A3021 RMK AO2
KDUB 161715Z AUTO 06004KT 10SM CLR 18/00 A3022 RMK AO2
KDUB 161655Z AUTO 04006KT 10SM CLR 18/02 A3022 RMK AO2
KDUB 161635Z AUTO 00000KT 10SM CLR 16/03 A3023 RMK AO2
KDUB 161615Z AUTO 00000KT 10SM CLR 15/03 A3023 RMK AO2
KDUB 161555Z AUTO 00000KT 10SM CLR 13/02 A3023 RMK AO2
KDUB 161535Z AUTO 30005KT 10SM CLR 12/02 A3023 RMK AO2
KDUB 161515Z AUTO 31004KT 10SM CLR 10/02 A3023 RMK AO2
KDUB 161455Z AUTO 31008KT 10SM CLR 09/02 A3023 RMK AO2
KDUB 161435Z AUTO 32008KT 10SM CLR 08/02 A3023 RMK AO2
KDUB 161415Z AUTO 33006KT 10SM CLR 07/02 A3024 RMK AO2
KDUB 161355Z AUTO 32006KT 10SM CLR 06/01 A3024 RMK AO2
KDUB 161335Z AUTO 31007KT 10SM CLR 06/01 A3024 RMK AO2
KDUB 161315Z AUTO 30008KT 10SM CLR 05/01 A3023 RMK AO2
KDUB 161255Z AUTO 29007KT 10SM CLR 03/01 A3023 RMK AO2
KDUB 161235Z AUTO 31008KT 10SM CLR 03/01 A3023 RMK AO2
KDUB 161215Z AUTO 32006KT 10SM CLR 04/01 A3021 RMK AO2
KDUB 161155Z AUTO 31008KT 10SM CLR 03/01 A3020 RMK AO2
KDUB 161135Z AUTO 30008KT 10SM CLR 03/01 A3020 RMK AO2
KDUB 161115Z AUTO 31007KT 10SM CLR 05/01 A3020 RMK AO2
KDUB 161055Z AUTO 31008KT 10SM CLR 04/01 A3020 RMK AO2
KDUB 161035Z AUTO 30007KT 10SM CLR 04/01 A3020 RMK AO2
KDUB 161015Z AUTO 29010KT 10SM CLR 05/01 A3020 RMK AO2
KDUB 160955Z AUTO 29011KT 10SM CLR 05/02 A3018 RMK AO2
KDUB 160935Z AUTO 30009KT 10SM CLR 05/02 A3018 RMK AO2
KDUB 160915Z AUTO 29009KT 10SM CLR 05/02 A3018 RMK AO2
KDUB 160855Z AUTO 29010KT 10SM CLR 05/02 A3018 RMK AO2
KDUB 160835Z AUTO 29008KT 10SM CLR 05/02 A3018 RMK AO2
KDUB 160815Z AUTO 29009KT 10SM CLR 05/02 A3017 RMK AO2
KDUB 160755Z AUTO 29011KT 10SM CLR 06/03 A3017 RMK AO2
KDUB 160735Z AUTO 29008KT 10SM CLR 06/03 A3017 RMK AO2
KDUB 160715Z AUTO 29011KT 10SM CLR 06/03 A3017 RMK AO2
KDUB 160655Z AUTO 31011KT 10SM CLR 06/03 A3017 RMK AO2
KDUB 160635Z AUTO 30009KT 10SM CLR 06/03 A3017 RMK AO2
KDUB 160615Z AUTO 32008KT 10SM CLR 07/03 A3017 RMK AO2
KDUB 160555Z AUTO 30007KT 10SM CLR 07/04 A3017 RMK AO2
KDUB 160535Z AUTO 29007KT 10SM CLR 07/04 A3017 RMK AO2
KDUB 160515Z AUTO 30006KT 10SM CLR 08/05 A3017 RMK AO2
KDUB 160455Z AUTO 30006KT 10SM CLR 08/05 A3017 RMK AO2
KDUB 160435Z AUTO 32005KT 10SM CLR 09/05 A3016 RMK AO2
KDUB 160415Z AUTO 25008KT 10SM CLR 09/04 A3016 RMK AO2
KDUB 160355Z AUTO 29005KT 10SM CLR 09/05 A3016 RMK AO2
KDUB 160335Z AUTO 26005KT 10SM CLR 10/05 A3016 RMK AO2
KDUB 160315Z AUTO 25007KT 10SM SCT075 SCT090 10/05 A3015 RMK AO2
KDUB 160255Z AUTO 22003KT 10SM SCT070 SCT100 10/05 A3014 RMK AO2
KDUB 160235Z AUTO 17004KT 10SM SCT070 SCT100 11/06 A3013 RMK AO2
KDUB 160215Z AUTO 13005KT 10SM SCT070 12/06 A3013 RMK AO2
KDUB 160155Z AUTO 12007KT 10SM CLR 13/05 A3012 RMK AO2
KDUB 160135Z AUTO 13007KT 10SM SCT110 13/05 A3012 RMK AO2
KDUB 160115Z AUTO 12005KT 10SM SCT110 13/05 A3012 RMK AO2 LTG DSNT SE
KDUB 160055Z AUTO 13008KT 10SM CLR 13/06 A3012 RMK AO2 LTG DSNT SE
KDUB 160035Z AUTO 11006KT 10SM CLR 13/06 A3012 RMK AO2
KDUB 160015Z AUTO 09005KT 10SM CLR 13/06 A3011 RMK AO2 LTG DSNT NW
KDUB 152355Z AUTO 10008KT 10SM CLR 13/06 A3011 RMK AO2 LTG DSNT SW AND NW
KDUB 152335Z AUTO 00000KT 10SM TS CLR 13/05 A3011 RMK AO2 LTG DSNT N AND E
KDUB 152315Z AUTO 20006KT 10SM VCTS SCT075 SCT100 SCT120 12/06 A3010 RMK AO2 LTG DSNT N E AND S
KDUB 152255Z AUTO 24007KT 10SM TS SCT039 BKN070 OVC095 11/06 A3011 RMK AO2 LTG DSNT NE
KDUB 152235Z AUTO 36005G16KT 4SM -RA SCT018 BKN050 OVC065 11/06 A3011 RMK AO2
KDUB 152215Z AUTO 12008G14KT 10SM BKN065 15/05 A3009 RMK AO2 LTG DSNT S
KDUB 152155Z AUTO 14007G17KT 10SM CLR 16/05 A3008 RMK AO2
KDUB 152135Z AUTO 12010KT 10SM VCTS CLR 16/06 A3008 RMK AO2
KDUB 152115Z AUTO 10007KT 10SM SCT011 SCT050 BKN095 16/06 A3008 RMK AO2
KDUB 152055Z AUTO 11006KT 10SM -VCTSRA SCT013 BKN047 OVC095 13/07 A3009 RMK AO2 LTG DSNT N AND SW
KDUB 152035Z AUTO 10005KT 10SM -RA BKN050 OVC065 13/05 A3010 RMK AO2 LTG DSNT S
KDUB 152015Z AUTO 12008KT 10SM SCT048 BKN055 OVC080 15/05 A3009 RMK AO2
KDUB 151955Z AUTO 11011KT 10SM BKN055 BKN070 OVC100 15/05 A3007 RMK AO2
KDUB 151935Z AUTO 05014G23KT 355V065 10SM SCT055 SCT075 OVC090 16/02 A3006 RMK AO2 LTG DSNT N
KDUB 151915Z AUTO 04004KT 10SM SCT055 BKN080 OVC100 17/01 A3005 RMK AO2
KDUB 151855Z AUTO 33007KT 10SM SCT080 OVC100 16/02 A3005 RMK AO2 LTG DSNT E
KDUB 151835Z AUTO 33008KT 10SM SCT110 16/02 A3005 RMK AO2 LTG DSNT N
KDUB 151815Z AUTO 00000KT 10SM BKN090 16/02 A3005 RMK AO2
KDUB 151750Z AUTO 36005KT 10SM SCT050 BKN090 16/02 A3005 RMK AO2
KDUB 151735Z AUTO 30010KT 10SM SCT050 BKN090 16/02 A3005 RMK AO2
KDUB 151715Z AUTO 29005G08KT 10SM SCT055 16/02 A3006 RMK AO2
KDUB 151655Z AUTO 34004KT 10SM BKN055 15/03 A3006 RMK AO2
KDUB 151635Z AUTO 00000KT 10SM SCT043 SCT050 15/02 A3005 RMK AO2
KDUB 151615Z AUTO 32006KT 10SM SCT043 SCT055 14/03 A3006 RMK AO2
KDUB 151555Z AUTO 35005KT 10SM CLR 15/02 A3005 RMK AO2
KDUB 151535Z AUTO 33008KT 10SM SCT039 14/03 A3006 RMK AO2
KDUB 151515Z AUTO 30004KT 10SM SCT039 13/03 A3006 RMK AO2
KDUB 151455Z AUTO 35007KT 10SM CLR 12/04 A3005 RMK AO2
KDUB 151435Z AUTO 34009KT 10SM CLR 12/03 A3004 RMK AO2
KDUB 151415Z AUTO 30009KT 10SM CLR 12/03 A3004 RMK AO2
KDUB 151355Z AUTO 31008KT 10SM CLR 11/04 A3004 RMK AO2
KDUB 151335Z AUTO 34007KT 10SM CLR 10/04 A3004 RMK AO2
KDUB 151315Z AUTO 32008KT 10SM SCT060 10/03 A3004 RMK AO2
KDUB 151255Z AUTO 32007KT 10SM SCT060 08/03 A3004 RMK AO2
KDUB 151235Z AUTO 28013KT 10SM SCT060 09/03 A3004 RMK AO2
KDUB 151215Z AUTO 27012KT 10SM OVC060 10/03 A3003 RMK AO2
KDUB 151155Z AUTO 28004KT 10SM OVC060 08/04 A3003 RMK AO2
KDUB 151135Z AUTO 34004KT 10SM OVC060 09/03 A3003 RMK AO2
KDUB 151115Z AUTO 31004KT 10SM VCTS OVC060 09/04 A3002 RMK AO2
KDUB 151055Z AUTO 29009KT 10SM OVC060 10/04 A3003 RMK AO2
KDUB 151035Z AUTO 27007KT 10SM SCT042 OVC060 10/03 A3003 RMK AO2
KDUB 151010Z AUTO 36003KT 10SM OVC050 10/04 A3004 RMK AO2 LTG DSNT S
KDUB 150955Z AUTO 29003KT 10SM BKN050 OVC075 10/03 A3004 RMK AO2
KDUB 150935Z AUTO 26011KT 10SM BKN050 OVC090 11/03 A3003 RMK AO2
KDUB 150915Z AUTO 28011KT 10SM OVC050 10/04 A3004 RMK AO2
KDUB 150855Z AUTO 31007KT 10SM OVC050 09/06 A3004 RMK AO2
KDUB 150835Z AUTO 31011KT 10SM BKN050 OVC065 09/05 A3003 RMK AO2
KDUB 150815Z AUTO 32009KT 10SM -DZ BKN050 OVC060 09/05 A3003 RMK AO2
KDUB 150755Z AUTO 31010KT 10SM RA SCT050 BKN070 OVC090 10/05 A3002 RMK AO2 LTG DSNT S